Time;durP1;ratioP1;P1;durP2;ratioP2;P2;SDS_P1;SDS_P2;PMS_P1;PMS_P2;Temp;Humidity;BMP_temperature;BMP_pressure;BME280_temperature;BME280_humidity;BME280_pressure;Samples;Min_cycle;Max_cycle;Signal;HPM_P1;HPM_P2
2023/03/20 00:00:30;;;;;;;4.60;1.60;;;12.70;99.90;;;;;;5055335;28;20205;-61
2023/03/20 00:02:57;;;;;;;2.63;1.60;;;12.70;99.90;;;;;;5054827;28;20716;-61
2023/03/20 00:05:25;;;;;;;1.50;1.40;;;12.70;99.90;;;;;;5055017;28;20225;-61
2023/03/20 00:07:52;;;;;;;3.47;1.67;;;12.70;99.90;;;;;;5054336;28;20213;-61
2023/03/20 00:10:20;;;;;;;2.27;1.57;;;12.70;99.90;;;;;;5054495;28;20576;-61
2023/03/20 00:12:50;;;;;;;1.30;1.20;;;12.60;99.90;;;;;;5054599;28;20283;-61
2023/03/20 00:15:29;;;;;;;1.40;1.30;;;12.60;99.90;;;;;;5053762;28;20686;-61
2023/03/20 00:17:56;;;;;;;1.90;1.50;;;12.60;99.90;;;;;;5053672;28;20760;-61
2023/03/20 00:20:23;;;;;;;1.53;1.20;;;12.60;99.90;;;;;;5054058;28;20224;-61
2023/03/20 00:22:50;;;;;;;1.40;1.30;;;12.60;99.90;;;;;;5056102;28;20236;-61
2023/03/20 00:25:20;;;;;;;1.50;1.20;;;12.50;99.90;;;;;;5053816;28;20229;-61
2023/03/20 00:27:48;;;;;;;1.40;1.30;;;12.50;99.90;;;;;;5053219;28;20205;-61
2023/03/20 00:30:21;;;;;;;1.60;1.47;;;12.60;99.90;;;;;;5054020;28;20210;-61
2023/03/20 00:32:48;;;;;;;1.57;1.40;;;12.60;99.90;;;;;;5053260;28;20279;-62
2023/03/20 00:35:21;;;;;;;1.57;1.47;;;12.60;99.90;;;;;;5053942;28;20217;-61
2023/03/20 00:37:48;;;;;;;1.37;1.20;;;12.60;99.90;;;;;;5053177;28;20206;-61
2023/03/20 00:40:15;;;;;;;1.30;1.20;;;12.70;99.90;;;;;;5053909;28;20225;-61
2023/03/20 00:42:43;;;;;;;1.37;1.27;;;12.70;99.90;;;;;;5053814;28;20237;-61
2023/03/20 00:45:16;;;;;;;1.60;1.50;;;12.60;99.90;;;;;;5054057;28;20296;-61
2023/03/20 00:47:44;;;;;;;1.23;1.13;;;12.60;99.90;;;;;;5053600;28;20265;-61
2023/03/20 00:50:17;;;;;;;1.50;1.40;;;12.60;99.90;;;;;;5057210;28;20665;-61
2023/03/20 00:52:44;;;;;;;2.10;1.40;;;12.60;99.90;;;;;;5060030;28;20233;-62
2023/03/20 00:55:11;;;;;;;3.40;1.57;;;12.60;99.90;;;;;;5057814;28;20206;-62
2023/03/20 00:57:41;;;;;;;1.80;1.47;;;12.50;99.90;;;;;;5056998;28;20224;-61
2023/03/20 01:00:22;;;;;;;1.40;1.30;;;12.60;99.90;;;;;;5057468;28;20216;-62
2023/03/20 01:02:49;;;;;;;1.97;1.43;;;12.60;99.90;;;;;;5056753;28;20599;-62
2023/03/20 01:05:16;;;;;;;1.50;1.27;;;12.70;99.90;;;;;;5057522;28;20247;-62
2023/03/20 01:07:44;;;;;;;1.50;1.33;;;12.70;99.90;;;;;;5056565;28;20214;-61
2023/03/20 01:10:12;;;;;;;1.63;1.53;;;12.70;99.90;;;;;;5057409;28;20217;-62
2023/03/20 01:12:40;;;;;;;1.67;1.47;;;12.80;99.90;;;;;;5056498;28;20599;-63
2023/03/20 01:15:16;;;;;;;2.47;1.50;;;12.80;99.90;;;;;;5055696;28;20197;-62
2023/03/20 01:17:45;;;;;;;1.50;1.40;;;12.80;99.90;;;;;;5055374;28;20634;-61
2023/03/20 01:20:16;;;;;;;1.50;1.30;;;12.80;99.90;;;;;;5057110;28;20534;-62
2023/03/20 01:22:43;;;;;;;2.23;1.70;;;12.80;99.90;;;;;;5059588;28;20656;-62
2023/03/20 01:25:10;;;;;;;4.40;2.40;;;12.80;99.90;;;;;;5056618;28;20232;-62
2023/03/20 01:27:38;;;;;;;3.97;2.23;;;12.80;99.90;;;;;;5056469;28;20255;-62
2023/03/20 01:30:15;;;;;;;4.93;2.83;;;12.70;99.90;;;;;;5056919;28;20210;-61
2023/03/20 01:32:45;;;;;;;3.50;2.60;;;12.60;99.90;;;;;;5056398;28;20236;-62
2023/03/20 01:35:13;;;;;;;4.53;2.87;;;12.60;99.90;;;;;;5056632;28;20198;-62
2023/03/20 01:37:40;;;;;;;3.60;3.00;;;12.70;99.90;;;;;;5057041;28;20213;-62
2023/03/20 01:40:29;;;;;;;2.17;1.53;;;12.60;99.90;;;;;;5056756;28;20669;-61
2023/03/20 01:42:56;;;;;;;2.80;2.10;;;12.60;99.90;;;;;;5056168;28;20244;-61
2023/03/20 01:45:30;;;;;;;1.53;1.43;;;12.60;99.90;;;;;;5056533;28;20731;-62
2023/03/20 01:47:58;;;;;;;2.13;1.67;;;12.60;99.90;;;;;;5056574;28;20209;-62
2023/03/20 01:50:28;;;;;;;2.00;1.87;;;12.60;99.90;;;;;;5057089;28;20209;-62
2023/03/20 01:53:02;;;;;;;4.70;3.90;;;12.60;99.90;;;;;;5058421;28;20241;-62
2023/03/20 01:55:29;;;;;;;9.40;7.63;;;12.60;99.90;;;;;;5056242;28;20665;-62
2023/03/20 01:57:59;;;;;;;8.20;7.40;;;12.60;99.90;;;;;;5057216;28;20209;-62
2023/03/20 02:00:26;;;;;;;6.83;5.93;;;12.60;99.90;;;;;;5056516;28;20198;-62
2023/03/20 02:02:54;;;;;;;3.57;3.27;;;12.70;99.90;;;;;;5056542;28;20259;-62
2023/03/20 02:05:23;;;;;;;2.20;2.00;;;12.70;99.90;;;;;;5056999;28;20233;-62
2023/03/20 02:07:59;;;;;;;2.40;2.00;;;12.70;99.90;;;;;;5056359;28;20213;-62
2023/03/20 02:10:26;;;;;;;1.80;1.47;;;12.70;99.90;;;;;;5056781;28;20209;-62
2023/03/20 02:12:53;;;;;;;1.73;1.40;;;12.70;99.90;;;;;;5056784;28;20222;-62
2023/03/20 02:15:20;;;;;;;2.10;1.30;;;12.70;99.90;;;;;;5056339;28;20202;-62
2023/03/20 02:17:47;;;;;;;1.40;1.30;;;12.60;99.90;;;;;;5056172;28;20205;-62
2023/03/20 02:20:31;;;;;;;1.87;1.23;;;12.70;99.90;;;;;;5056413;28;20202;-62
2023/03/20 02:23:26;;;;;;;1.60;1.40;;;12.70;99.90;;;;;;5057488;28;20233;-61
2023/03/20 02:26:21;;;;;;;1.37;1.27;;;12.70;99.90;;;;;;5054036;28;20221;-62
2023/03/20 02:29:15;;;;;;;2.80;1.50;;;12.70;99.90;;;;;;5055198;28;20584;-62
2023/03/20 02:32:27;;;;;;;2.23;1.10;;;12.70;99.90;;;;;;5055407;28;20225;-62
2023/03/20 02:35:22;;;;;;;1.73;1.23;;;12.70;99.90;;;;;;5027697;28;20209;-62
2023/03/20 02:38:11;;;;;;;2.17;1.30;;;12.70;99.90;;;;;;5055526;28;20691;-62
2023/03/20 02:40:45;;;;;;;2.30;1.50;;;12.80;99.90;;;;;;5055831;28;20205;-62
2023/03/20 02:43:18;;;;;;;2.53;1.60;;;12.80;99.90;;;;;;5055994;28;20251;-62
2023/03/20 02:45:52;;;;;;;2.20;1.30;;;12.80;99.90;;;;;;5055566;28;20213;-62
2023/03/20 02:48:29;;;;;;;1.20;1.10;;;12.90;99.90;;;;;;5055338;28;20224;-62
2023/03/20 02:51:00;;;;;;;1.27;1.10;;;12.90;99.90;;;;;;5055767;28;20687;-62
2023/03/20 02:53:39;;;;;;;3.13;1.20;;;12.90;99.90;;;;;;5055573;28;20226;-62
2023/03/20 02:56:16;;;;;;;1.10;1.00;;;12.90;99.90;;;;;;5054877;28;20217;-62
2023/03/20 02:58:49;;;;;;;2.27;1.40;;;12.90;99.90;;;;;;5054336;28;20198;-65
2023/03/20 03:01:19;;;;;;;0.83;0.83;;;12.90;99.90;;;;;;5054931;28;20206;-63
2023/03/20 03:03:50;;;;;;;1.50;1.23;;;12.90;99.90;;;;;;5055116;28;20210;-62
2023/03/20 03:06:22;;;;;;;1.40;1.30;;;12.80;99.90;;;;;;5054406;28;20227;-62
2023/03/20 03:08:56;;;;;;;3.03;1.20;;;12.80;99.90;;;;;;5054925;28;20213;-61
2023/03/20 03:11:23;;;;;;;1.20;1.10;;;12.70;99.90;;;;;;5054378;28;20231;-62
2023/03/20 03:13:53;;;;;;;2.13;1.37;;;12.70;99.90;;;;;;5054702;28;20198;-62
2023/03/20 03:16:25;;;;;;;2.00;1.87;;;12.70;99.90;;;;;;5055235;28;20182;-62
2023/03/20 03:19:00;;;;;;;2.60;2.00;;;12.60;99.90;;;;;;5055309;28;20292;-62
2023/03/20 03:21:29;;;;;;;2.67;1.80;;;12.40;99.90;;;;;;5057085;28;20259;-62
2023/03/20 03:23:57;;;;;;;5.10;3.13;;;12.40;99.90;;;;;;5055770;28;20223;-62
2023/03/20 03:26:28;;;;;;;3.60;2.87;;;12.50;99.90;;;;;;5054854;28;20256;-62
2023/03/20 03:29:00;;;;;;;2.60;2.40;;;12.50;99.90;;;;;;5054997;28;20651;-62
2023/03/20 03:31:28;;;;;;;2.90;2.20;;;12.50;99.90;;;;;;5054960;28;20202;-62
2023/03/20 03:33:57;;;;;;;3.13;2.20;;;12.50;99.90;;;;;;5054917;28;20213;-62
2023/03/20 03:36:38;;;;;;;3.63;2.60;;;12.50;99.90;;;;;;5055696;28;20209;-62
2023/03/20 03:39:15;;;;;;;4.23;3.50;;;12.50;99.90;;;;;;5055855;28;20206;-62
2023/03/20 03:41:46;;;;;;;5.07;4.23;;;12.60;99.90;;;;;;5055524;28;20308;-62
2023/03/20 03:44:19;;;;;;;2.50;2.30;;;12.60;99.90;;;;;;5055603;28;20205;-62
2023/03/20 03:46:52;;;;;;;3.20;2.37;;;12.60;99.90;;;;;;5055328;28;20728;-62
2023/03/20 03:49:22;;;;;;;2.47;2.10;;;12.60;99.90;;;;;;5055097;28;20212;-62
2023/03/20 03:51:55;;;;;;;2.53;2.27;;;12.60;99.90;;;;;;5056766;28;20229;-62
2023/03/20 03:54:27;;;;;;;6.00;2.23;;;12.60;99.90;;;;;;5054588;28;20248;-62
2023/03/20 03:56:56;;;;;;;1.80;1.70;;;12.50;99.90;;;;;;5054855;28;20657;-62
2023/03/20 03:59:27;;;;;;;2.20;1.80;;;12.50;99.90;;;;;;5054990;28;20208;-62
2023/03/20 04:01:55;;;;;;;3.13;2.80;;;12.60;99.90;;;;;;5054403;28;20237;-62
2023/03/20 04:04:24;;;;;;;3.57;2.10;;;12.50;99.90;;;;;;5054182;28;20225;-62
2023/03/20 04:06:51;;;;;;;3.57;2.23;;;12.50;99.90;;;;;;5053805;28;20225;-62
2023/03/20 04:09:18;;;;;;;6.70;4.40;;;12.50;99.90;;;;;;5054283;28;20287;-62
2023/03/20 04:11:50;;;;;;;3.90;3.00;;;12.50;99.90;;;;;;5054605;28;20312;-62
2023/03/20 04:14:17;;;;;;;3.97;2.80;;;12.50;99.90;;;;;;5054535;28;20209;-62
2023/03/20 04:16:44;;;;;;;3.00;2.13;;;12.50;99.90;;;;;;5053796;28;20348;-62
2023/03/20 04:19:11;;;;;;;4.30;1.90;;;12.60;99.90;;;;;;5053646;28;20209;-62
2023/03/20 04:21:37;;;;;;;2.33;1.80;;;12.50;99.90;;;;;;5054515;28;20233;-62
2023/03/20 04:24:05;;;;;;;3.00;1.73;;;12.50;99.90;;;;;;5055295;28;20724;-62
2023/03/20 04:26:32;;;;;;;2.37;1.70;;;12.50;99.90;;;;;;5056971;28;20225;-62
2023/03/20 04:29:00;;;;;;;2.07;1.67;;;12.50;99.90;;;;;;5057201;28;20684;-62
2023/03/20 04:31:27;;;;;;;2.80;1.87;;;12.50;99.90;;;;;;5057277;28;20596;-62
2023/03/20 04:33:54;;;;;;;2.40;1.63;;;12.50;99.90;;;;;;5057752;28;20218;-62
2023/03/20 04:36:21;;;;;;;2.20;1.70;;;12.50;99.90;;;;;;5058244;28;20206;-62
2023/03/20 04:38:48;;;;;;;1.30;1.20;;;12.50;99.90;;;;;;5057854;28;20228;-62
2023/03/20 04:41:15;;;;;;;23.93;17.43;;;12.30;99.90;;;;;;5057529;28;20229;-62
2023/03/20 04:43:41;;;;;;;9.77;6.17;;;12.30;99.90;;;;;;5058295;28;20218;-62
2023/03/20 04:46:09;;;;;;;4.97;3.57;;;12.30;99.90;;;;;;5057737;28;20608;-62
2023/03/20 04:48:36;;;;;;;2.20;1.93;;;12.30;99.90;;;;;;5057023;28;20704;-62
2023/03/20 04:51:03;;;;;;;7.17;4.73;;;12.30;99.90;;;;;;5059400;28;20288;-62
2023/03/20 04:53:30;;;;;;;2.70;2.10;;;12.30;99.90;;;;;;5060111;28;20261;-62
2023/03/20 04:55:57;;;;;;;4.90;3.87;;;12.30;99.90;;;;;;5057781;28;20212;-62
2023/03/20 04:58:24;;;;;;;4.03;2.80;;;12.30;99.90;;;;;;5057824;28;20209;-62
2023/03/20 05:00:50;;;;;;;2.60;2.30;;;12.30;99.90;;;;;;5058728;28;20216;-62
2023/03/20 05:03:19;;;;;;;3.03;2.00;;;12.40;99.90;;;;;;5058602;28;20244;-61
2023/03/20 05:05:45;;;;;;;3.93;2.60;;;12.40;99.90;;;;;;5059049;28;20206;-63
2023/03/20 05:08:12;;;;;;;5.37;3.63;;;12.40;99.90;;;;;;5058304;28;20674;-63
2023/03/20 05:10:39;;;;;;;3.60;2.90;;;12.30;99.90;;;;;;5058969;28;20214;-63
2023/03/20 05:13:06;;;;;;;4.77;3.80;;;12.30;99.90;;;;;;5057336;28;20229;-62
2023/03/20 05:15:33;;;;;;;1.87;1.67;;;12.30;99.90;;;;;;5059677;28;20235;-63
2023/03/20 05:18:00;;;;;;;14.30;8.87;;;12.30;99.90;;;;;;5060599;28;20202;-63
2023/03/20 05:20:28;;;;;;;1.30;1.20;;;12.30;99.90;;;;;;5060992;28;20209;-63
2023/03/20 05:22:55;;;;;;;9.13;6.70;;;12.30;99.90;;;;;;5061893;28;20612;-63
2023/03/20 05:25:22;;;;;;;12.03;7.23;;;12.30;99.90;;;;;;5060067;28;20213;-63
2023/03/20 05:27:49;;;;;;;3.50;2.40;;;12.40;99.90;;;;;;5060742;28;20230;-63
2023/03/20 05:30:18;;;;;;;2.17;1.50;;;12.40;99.90;;;;;;5061270;28;20201;-63
2023/03/20 05:32:45;;;;;;;4.17;3.33;;;12.40;99.90;;;;;;5060420;28;20249;-63
2023/03/20 05:35:12;;;;;;;2.73;1.50;;;12.40;99.90;;;;;;5059554;28;20205;-63
2023/03/20 05:37:40;;;;;;;3.93;2.87;;;12.40;99.90;;;;;;5059640;28;20288;-63
2023/03/20 05:40:11;;;;;;;2.40;2.00;;;12.40;99.90;;;;;;5060033;28;20241;-63
2023/03/20 05:42:37;;;;;;;2.40;1.80;;;12.40;99.90;;;;;;5058959;28;20229;-62
2023/03/20 05:45:05;;;;;;;4.03;2.10;;;12.40;99.90;;;;;;5058723;28;20297;-63
2023/03/20 05:47:32;;;;;;;2.43;1.90;;;12.30;99.90;;;;;;5057703;28;20230;-65
2023/03/20 05:49:59;;;;;;;5.47;3.20;;;12.30;99.90;;;;;;5058179;28;20202;-62
2023/03/20 05:52:26;;;;;;;5.57;2.17;;;12.30;99.90;;;;;;5059491;28;20709;-63
2023/03/20 05:54:55;;;;;;;8.70;6.10;;;12.30;99.90;;;;;;5057907;28;20292;-62
2023/03/20 05:57:22;;;;;;;6.57;4.07;;;12.30;99.90;;;;;;5057574;28;20201;-63
2023/03/20 05:59:49;;;;;;;3.63;2.17;;;12.30;99.90;;;;;;5057827;28;20206;-63
2023/03/20 06:02:16;;;;;;;3.50;2.50;;;12.40;99.90;;;;;;5057942;28;20237;-63
2023/03/20 06:04:42;;;;;;;1.70;1.50;;;12.40;99.90;;;;;;5057995;28;20205;-63
2023/03/20 06:07:09;;;;;;;4.40;1.90;;;12.50;99.90;;;;;;5057372;28;20232;-62
2023/03/20 06:09:36;;;;;;;2.43;1.83;;;12.50;99.90;;;;;;5057279;28;20561;-63
2023/03/20 06:12:05;;;;;;;3.63;1.70;;;12.50;99.90;;;;;;5057245;28;20233;-63
2023/03/20 06:14:32;;;;;;;1.67;1.27;;;12.60;99.90;;;;;;5057144;28;20271;-62
2023/03/20 06:16:59;;;;;;;2.67;1.83;;;12.60;99.90;;;;;;5059067;28;20209;-63
2023/03/20 06:19:26;;;;;;;3.83;2.13;;;12.60;99.90;;;;;;5056973;28;20209;-63
2023/03/20 06:21:53;;;;;;;3.30;1.50;;;12.70;99.90;;;;;;5060005;28;20248;-62
2023/03/20 06:24:21;;;;;;;2.30;2.10;;;12.70;99.90;;;;;;5057368;28;20293;-63
2023/03/20 06:26:48;;;;;;;1.50;1.40;;;12.70;99.90;;;;;;5057646;28;20796;-63
2023/03/20 06:29:16;;;;;;;2.57;1.37;;;12.80;99.90;;;;;;5057530;28;20205;-63
2023/03/20 06:31:43;;;;;;;1.37;1.20;;;12.80;99.90;;;;;;5056831;28;20605;-63
2023/03/20 06:34:10;;;;;;;1.83;1.23;;;12.80;99.90;;;;;;5056635;28;20209;-63
2023/03/20 06:36:37;;;;;;;2.57;1.00;;;12.80;99.90;;;;;;5057102;28;20206;-63
2023/03/20 06:39:04;;;;;;;1.70;1.17;;;12.80;99.90;;;;;;5057148;28;20215;-63
2023/03/20 06:41:31;;;;;;;3.17;1.10;;;12.90;99.90;;;;;;5057008;28;20214;-63
2023/03/20 06:43:58;;;;;;;1.70;1.20;;;12.90;99.90;;;;;;5058534;28;20212;-63
2023/03/20 06:46:27;;;;;;;1.03;0.93;;;13.00;99.90;;;;;;5057316;28;20241;-63
2023/03/20 06:48:54;;;;;;;1.87;1.30;;;13.10;99.90;;;;;;5057499;28;20648;-63
2023/03/20 06:51:21;;;;;;;2.33;2.03;;;13.10;99.90;;;;;;5058356;28;20644;-63
2023/03/20 06:53:48;;;;;;;2.07;0.80;;;13.20;99.90;;;;;;5059232;28;20211;-62
2023/03/20 06:56:15;;;;;;;2.57;1.40;;;13.20;99.90;;;;;;5057620;28;20206;-63
2023/03/20 06:58:43;;;;;;;2.63;1.43;;;13.20;99.90;;;;;;5057313;28;20229;-63
2023/03/20 07:01:10;;;;;;;2.90;1.30;;;13.20;99.90;;;;;;5056498;28;20212;-63
2023/03/20 07:03:39;;;;;;;1.53;0.80;;;13.10;99.90;;;;;;5056172;28;20248;-62
2023/03/20 07:06:06;;;;;;;3.23;1.13;;;13.00;99.90;;;;;;5056809;28;20304;-63
2023/03/20 07:08:33;;;;;;;1.73;1.20;;;13.00;99.90;;;;;;5056167;28;20523;-65
2023/03/20 07:11:01;;;;;;;1.83;1.20;;;13.00;99.90;;;;;;5055845;28;20209;-63
2023/03/20 07:13:28;;;;;;;1.60;1.03;;;13.20;99.90;;;;;;5056050;28;20230;-63
2023/03/20 07:15:57;;;;;;;1.33;0.67;;;13.40;99.90;;;;;;5057569;28;20212;-63
2023/03/20 07:18:24;;;;;;;2.00;0.90;;;13.60;99.90;;;;;;5055939;28;20573;-62
2023/03/20 07:20:53;;;;;;;3.40;1.40;;;13.80;99.90;;;;;;5056769;28;20259;-63
2023/03/20 07:23:20;;;;;;;1.40;1.27;;;14.10;99.90;;;;;;5057617;28;20233;-63
2023/03/20 07:25:47;;;;;;;1.20;0.90;;;14.20;99.90;;;;;;5055786;28;20202;-63
2023/03/20 07:28:14;;;;;;;1.10;0.90;;;14.40;99.90;;;;;;5055304;28;20229;-63
2023/03/20 07:30:41;;;;;;;0.97;0.87;;;14.40;99.90;;;;;;5055440;28;20205;-66
2023/03/20 07:33:08;;;;;;;1.20;1.10;;;14.40;99.90;;;;;;5055088;28;20253;-60
2023/03/20 07:35:34;;;;;;;2.53;1.30;;;14.40;99.90;;;;;;5054282;28;20212;-61
2023/03/20 07:38:03;;;;;;;2.37;1.00;;;14.40;99.90;;;;;;5053888;28;20233;-61
2023/03/20 07:40:29;;;;;;;1.33;1.00;;;14.40;99.90;;;;;;5054567;28;20301;-61
2023/03/20 07:42:57;;;;;;;2.57;1.10;;;14.40;99.90;;;;;;5053727;28;20229;-62
2023/03/20 07:45:23;;;;;;;1.50;1.40;;;14.50;99.90;;;;;;5053479;28;20205;-62
2023/03/20 07:47:51;;;;;;;3.57;1.83;;;14.60;99.90;;;;;;5052836;28;20249;-62
2023/03/20 07:50:18;;;;;;;1.90;1.20;;;14.70;99.90;;;;;;5053440;28;20587;-60
2023/03/20 07:52:47;;;;;;;1.80;1.10;;;14.90;99.90;;;;;;5054379;28;20279;-65
2023/03/20 07:55:16;;;;;;;7.13;1.30;;;15.10;99.90;;;;;;5055752;28;20224;-65
2023/03/20 07:57:43;;;;;;;1.37;1.27;;;15.40;99.90;;;;;;5055072;28;20201;-62
2023/03/20 08:00:13;;;;;;;5.40;2.03;;;15.70;99.90;;;;;;5054655;28;20194;-62
2023/03/20 08:02:39;;;;;;;3.08;1.60;;;15.90;99.90;;;;;;5055512;28;20243;-62
2023/03/20 08:05:07;;;;;;;5.53;1.60;;;15.90;99.90;;;;;;5054667;28;20236;-61
2023/03/20 08:07:34;;;;;;;1.60;1.20;;;15.90;99.90;;;;;;5053871;28;20222;-62
2023/03/20 08:10:01;;;;;;;3.22;1.20;;;15.90;99.90;;;;;;5054063;28;20212;-62
2023/03/20 08:12:29;;;;;;;4.67;3.70;;;16.00;99.90;;;;;;5054602;28;20222;-66
2023/03/20 08:14:56;;;;;;;4.07;1.50;;;16.30;99.90;;;;;;5055619;28;20206;-62
2023/03/20 08:17:23;;;;;;;2.47;1.40;;;16.70;99.90;;;;;;5054783;28;20205;-62
2023/03/20 08:19:49;;;;;;;3.70;1.10;;;17.10;99.90;;;;;;5053856;28;20215;-61
2023/03/20 08:22:16;;;;;;;2.55;1.38;;;17.50;99.90;;;;;;5055088;28;20221;-61
2023/03/20 08:24:43;;;;;;;2.42;1.30;;;17.80;99.90;;;;;;5054896;28;20665;-61
2023/03/20 08:27:10;;;;;;;1.67;1.10;;;17.90;99.90;;;;;;5053503;28;20217;-61
2023/03/20 08:29:38;;;;;;;1.20;0.90;;;18.00;99.90;;;;;;5054172;28;20201;-61
2023/03/20 08:32:06;;;;;;;1.23;1.00;;;18.10;99.90;;;;;;5054137;28;20637;-61
2023/03/20 08:34:33;;;;;;;1.55;0.98;;;18.00;99.90;;;;;;5053976;28;20273;-61
2023/03/20 08:37:00;;;;;;;2.33;0.93;;;18.00;99.90;;;;;;5054254;28;20202;-61
2023/03/20 08:39:26;;;;;;;1.98;1.10;;;18.00;99.90;;;;;;5056129;28;20681;-61
2023/03/20 08:41:53;;;;;;;1.45;0.95;;;18.00;99.90;;;;;;5054664;28;20230;-60
2023/03/20 08:44:20;;;;;;;2.38;1.20;;;18.00;99.90;;;;;;5054995;28;20208;-61
2023/03/20 08:46:48;;;;;;;1.52;1.15;;;18.30;99.90;;;;;;5053610;28;20216;-61
2023/03/20 08:49:15;;;;;;;1.88;1.00;;;18.40;99.90;;;;;;5053340;28;20221;-61
2023/03/20 08:51:42;;;;;;;2.05;0.82;;;18.70;99.90;;;;;;5053643;28;20234;-61
2023/03/20 08:54:09;;;;;;;1.27;0.73;;;18.90;99.90;;;;;;5053813;28;20279;-62
2023/03/20 08:56:36;;;;;;;1.30;1.10;;;19.10;99.90;;;;;;5053323;28;20202;-61
2023/03/20 08:59:03;;;;;;;0.77;0.77;;;19.10;99.90;;;;;;5053579;28;20202;-62
2023/03/20 09:01:30;;;;;;;2.30;1.45;;;18.90;99.90;;;;;;5053078;28;20706;-61
2023/03/20 09:03:58;;;;;;;2.65;1.40;;;18.80;99.90;;;;;;5052814;28;20644;-62
2023/03/20 09:06:25;;;;;;;3.22;0.90;;;18.90;99.90;;;;;;5052031;28;20209;-61
2023/03/20 09:08:54;;;;;;;1.52;0.93;;;18.90;99.90;;;;;;5051936;28;20261;-61
2023/03/20 09:11:21;;;;;;;2.17;1.20;;;18.80;99.90;;;;;;5055760;28;20212;-62
2023/03/20 09:13:47;;;;;;;2.70;1.58;;;18.70;99.90;;;;;;5055876;28;20205;-61
2023/03/20 09:16:15;;;;;;;1.88;1.40;;;18.80;99.90;;;;;;5056011;28;20206;-61
2023/03/20 09:18:41;;;;;;;2.00;1.25;;;18.80;99.90;;;;;;5056051;28;20202;-62
2023/03/20 09:21:10;;;;;;;1.42;1.00;;;18.60;99.90;;;;;;5056142;28;20205;-63
2023/03/20 09:23:36;;;;;;;5.82;2.00;;;18.70;99.90;;;;;;5055863;28;20248;-62
2023/03/20 09:26:03;;;;;;;1.10;1.00;;;18.70;99.90;;;;;;5055618;28;20247;-62
2023/03/20 09:28:30;;;;;;;1.45;1.17;;;18.70;99.90;;;;;;5055612;28;20323;-62
2023/03/20 09:30:58;;;;;;;1.67;1.10;;;18.80;99.90;;;;;;5055579;28;20700;-61
2023/03/20 09:33:25;;;;;;;1.80;1.02;;;19.10;99.90;;;;;;5055698;28;20225;-62
2023/03/20 09:35:52;;;;;;;2.35;1.02;;;19.50;99.90;;;;;;5055581;28;20670;-62
2023/03/20 09:38:21;;;;;;;2.10;1.30;;;19.70;99.90;;;;;;5055800;28;20280;-62
2023/03/20 09:40:53;;;;;;;1.58;1.30;;;20.00;99.90;;;;;;5055680;28;20241;-61
2023/03/20 09:43:35;;;;;;;2.67;1.30;;;20.00;99.90;;;;;;5056502;28;20237;-62
2023/03/20 09:46:15;;;;;;;1.73;1.20;;;19.90;99.90;;;;;;5056492;28;20568;-62
2023/03/20 09:48:49;;;;;;;1.48;1.27;;;19.70;99.90;;;;;;5056315;28;20316;-62
2023/03/20 09:51:24;;;;;;;1.90;1.40;;;19.20;99.90;;;;;;5056228;28;20233;-62
2023/03/20 09:53:55;;;;;;;3.28;1.27;;;19.00;99.90;;;;;;5056122;28;20247;-62
2023/03/20 09:56:25;;;;;;;2.10;1.40;;;18.90;99.90;;;;;;5056018;28;20696;-63
2023/03/20 09:58:55;;;;;;;3.40;2.80;;;19.10;99.90;;;;;;5056327;28;20676;-63
2023/03/20 10:01:24;;;;;;;1.98;1.48;;;19.50;99.90;;;;;;5056915;28;20621;-63
2023/03/20 10:03:55;;;;;;;2.00;1.25;;;19.70;99.90;;;;;;5055522;28;20209;-63
2023/03/20 10:06:22;;;;;;;1.50;1.40;;;19.70;99.90;;;;;;5054752;28;20205;-63
2023/03/20 10:08:50;;;;;;;1.35;1.25;;;19.60;99.90;;;;;;5054364;28;20229;-61
2023/03/20 10:11:34;;;;;;;1.77;1.30;;;19.50;99.90;;;;;;5054921;28;20237;-61
2023/03/20 10:14:12;;;;;;;1.50;1.40;;;19.30;99.90;;;;;;5055147;28;20677;-61
2023/03/20 10:16:54;;;;;;;1.45;1.27;;;19.50;99.90;;;;;;5054588;28;20674;-61
2023/03/20 10:19:25;;;;;;;1.30;1.17;;;19.50;99.90;;;;;;5054839;28;20206;-61
2023/03/20 10:22:00;;;;;;;1.83;1.23;;;19.30;99.90;;;;;;5054502;28;20611;-61
2023/03/20 10:24:31;;;;;;;1.77;1.58;;;19.40;99.90;;;;;;5054977;28;20212;-61
2023/03/20 10:27:11;;;;;;;2.95;1.70;;;19.60;99.90;;;;;;5054368;28;20439;-61
2023/03/20 10:29:49;;;;;;;2.83;1.98;;;19.50;99.90;;;;;;5050643;28;20229;-59
2023/03/20 10:32:23;;;;;;;2.65;1.60;;;18.90;99.90;;;;;;5053353;28;20225;-60
2023/03/20 10:35:02;;;;;;;2.00;1.80;;;18.50;99.90;;;;;;5053457;28;20205;-59
2023/03/20 10:37:39;;;;;;;1.75;1.30;;;18.10;99.90;;;;;;5051983;28;20205;-60
2023/03/20 10:40:25;;;;;;;2.60;1.92;;;18.20;99.90;;;;;;5053050;28;20219;-59
2023/03/20 10:42:57;;;;;;;2.30;1.60;;;18.30;99.90;;;;;;5052942;28;20225;-59
2023/03/20 10:45:33;;;;;;;2.00;1.52;;;18.30;99.90;;;;;;5053493;28;20198;-61
2023/03/20 10:48:04;;;;;;;2.03;1.52;;;18.40;99.90;;;;;;5052481;28;20232;-60
2023/03/20 10:50:35;;;;;;;2.63;1.77;;;18.60;99.90;;;;;;5052492;28;20666;-59
2023/03/20 10:53:03;;;;;;;2.20;1.52;;;19.00;99.90;;;;;;5052358;28;20225;-60
2023/03/20 10:55:34;;;;;;;2.40;1.40;;;19.00;99.90;;;;;;5053004;28;20205;-59
2023/03/20 10:58:10;;;;;;;1.98;1.70;;;19.00;99.90;;;;;;5052594;28;20205;-59
2023/03/20 11:00:36;;;;;;;1.98;1.40;;;19.10;99.90;;;;;;5052304;28;20201;-58
2023/03/20 11:03:04;;;;;;;2.10;1.90;;;18.90;99.90;;;;;;5051822;28;20241;-58
2023/03/20 11:05:33;;;;;;;2.00;1.58;;;18.70;99.90;;;;;;5051774;28;20551;-58
2023/03/20 11:08:03;;;;;;;2.08;1.67;;;18.70;99.90;;;;;;5051559;28;20234;-59
2023/03/20 11:10:32;;;;;;;4.22;1.80;;;18.90;99.90;;;;;;5052226;28;20626;-59
2023/03/20 11:13:03;;;;;;;4.07;2.60;;;18.90;99.90;;;;;;5051923;28;20728;-59
2023/03/20 11:15:34;;;;;;;4.63;2.70;;;18.60;99.90;;;;;;5051810;28;20681;-59
2023/03/20 11:18:03;;;;;;;4.35;2.90;;;18.40;99.90;;;;;;5051249;28;20206;-58
2023/03/20 11:20:35;;;;;;;2.58;2.38;;;18.30;99.90;;;;;;5052007;28;20684;-59
2023/03/20 11:23:04;;;;;;;3.42;2.70;;;17.90;99.90;;;;;;5051754;28;20235;-59
2023/03/20 11:25:34;;;;;;;4.95;3.20;;;17.70;99.90;;;;;;5051660;28;20209;-58
2023/03/20 11:28:19;;;;;;;6.15;4.72;;;17.60;99.90;;;;;;5051502;28;20293;-59
2023/03/20 11:30:48;;;;;;;4.25;2.92;;;17.40;99.90;;;;;;5053471;28;20209;-60
2023/03/20 11:33:16;;;;;;;3.92;3.28;;;17.30;99.90;;;;;;5051530;28;20221;-59
2023/03/20 11:35:46;;;;;;;3.38;2.60;;;17.30;99.90;;;;;;5052667;28;20209;-59
2023/03/20 11:38:15;;;;;;;5.28;3.10;;;17.30;99.90;;;;;;5051585;28;20205;-60
2023/03/20 11:40:42;;;;;;;4.70;3.15;;;17.40;99.90;;;;;;5054376;28;20209;-59
2023/03/20 11:43:13;;;;;;;4.55;2.85;;;17.40;99.90;;;;;;5053716;28;20316;-59
2023/03/20 11:45:42;;;;;;;4.72;3.22;;;17.20;99.90;;;;;;5052536;28;20657;-59
2023/03/20 11:48:19;;;;;;;3.80;3.15;;;17.00;99.90;;;;;;5053220;28;20327;-59
2023/03/20 11:50:49;;;;;;;4.25;2.70;;;17.00;99.90;;;;;;5052454;28;20300;-59
2023/03/20 11:53:22;;;;;;;4.20;3.03;;;17.00;99.90;;;;;;5053076;28;20233;-61
2023/03/20 11:56:01;;;;;;;3.42;3.10;;;16.90;99.90;;;;;;5054128;28;20248;-61
2023/03/20 11:58:29;;;;;;;4.57;3.08;;;16.90;99.90;;;;;;5054193;28;20202;-60
2023/03/20 12:00:57;;;;;;;3.90;2.85;;;16.90;99.90;;;;;;5054291;28;20229;-60
2023/03/20 12:03:46;;;;;;;3.70;3.15;;;16.90;99.90;;;;;;5054310;28;20237;-59
2023/03/20 12:06:18;;;;;;;3.95;3.53;;;17.00;99.90;;;;;;5054912;28;20216;-60
2023/03/20 12:08:50;;;;;;;4.30;3.70;;;17.00;99.90;;;;;;5054698;28;20230;-60
2023/03/20 12:11:40;;;;;;;4.75;4.18;;;17.20;99.90;;;;;;5054978;28;20229;-60
2023/03/20 12:14:16;;;;;;;4.50;3.90;;;17.50;99.90;;;;;;5054645;28;20256;-61
2023/03/20 12:16:43;;;;;;;5.28;4.10;;;17.60;99.90;;;;;;5054954;28;20205;-60
2023/03/20 12:19:17;;;;;;;4.78;3.63;;;17.70;99.90;;;;;;5054751;28;20204;-59
2023/03/20 12:21:52;;;;;;;5.05;2.95;;;17.60;99.90;;;;;;5056587;28;20229;-59
2023/03/20 12:24:27;;;;;;;4.55;3.22;;;17.60;99.90;;;;;;5055663;28;20259;-59
2023/03/20 12:27:00;;;;;;;3.58;2.78;;;17.80;99.90;;;;;;5056227;28;20209;-59
2023/03/20 12:29:30;;;;;;;3.40;2.97;;;17.90;99.90;;;;;;5056152;28;20623;-59
2023/03/20 12:32:01;;;;;;;5.10;3.28;;;18.00;99.90;;;;;;5055884;28;20229;-59
2023/03/20 12:34:37;;;;;;;4.22;2.80;;;18.30;99.90;;;;;;5057313;28;20274;-60
2023/03/20 12:37:08;;;;;;;3.75;3.17;;;18.50;99.90;;;;;;5056803;28;20387;-60
2023/03/20 12:39:40;;;;;;;3.33;3.00;;;18.50;99.90;;;;;;5055133;28;20285;-59
2023/03/20 12:42:21;;;;;;;3.28;2.97;;;18.70;99.90;;;;;;5055223;28;20686;-60
2023/03/20 12:44:57;;;;;;;3.40;3.08;;;19.10;99.90;;;;;;5057572;28;20208;-60
2023/03/20 12:47:46;;;;;;;3.55;2.85;;;19.30;99.90;;;;;;5060524;28;20201;-61
2023/03/20 12:50:23;;;;;;;3.42;2.63;;;19.40;99.90;;;;;;5060724;28;20728;-60
2023/03/20 12:53:01;;;;;;;3.78;3.22;;;19.50;99.90;;;;;;5059760;28;20635;-59
2023/03/20 12:55:43;;;;;;;4.82;3.33;;;19.30;99.90;;;;;;5060900;28;20201;-60
2023/03/20 12:58:27;;;;;;;5.90;3.25;;;19.00;99.90;;;;;;5059392;28;20213;-60
2023/03/20 13:01:02;;;;;;;3.88;2.92;;;18.60;99.90;;;;;;5059130;28;20244;-60